1867 Major Hurricane NOT_NAMED (1867268N18278)


IBTrACS version v04r00. Visit IBTrACS website for data access.
Please direct all questions to the IBTrACS Q and A forum

Storm track - Intensity - Wind Radii - Intensity Data - Source Data - All data

Summary Information

Storm ID 1867268N18278
Start Sep 25 00Z
Landfall Sep 26 15Z, Oct 2 15Z, Oct 5 06Z, Oct 6 15Z
Max Intensity 120 kt (Oct 2 00Z)
End Oct 9 18Z
ATCF IDs ,AL071867
Track status Best track data.

Storm track plot

Map of storm track

Intensity plots

Map of storm track

Radial wind information

No radial wind information for this storm


Position and Intensity Table

BASIN ISO_TIME_________ NATURE LAT LON WMO WIND USA WIND MLC WIND
degrees north degrees east kts kts kts
NA 1867-09-25 00:00:00 TS 18.20 -82.00 30
NA 03:00:00 TS 18.25 -82.50 30
NA 06:00:00 TS 18.30 -83.00 30
NA 09:00:00 TS 18.35 -83.50 30
NA 12:00:00 TS 18.40 -84.00 30
NA 15:00:00 TS 18.46 -84.50 30
NA 18:00:00 TS 18.50 -85.00 30
NA 21:00:00 TS 18.50 -85.52 32
NA 1867-09-26 00:00:00 TS 18.50 -86.00 35
NA 03:00:00 TS 18.55 -86.42 35
NA 06:00:00 TS 18.60 -86.80 35
NA 09:00:00 TS 18.60 -87.15 35
NA 12:00:00 TS 18.60 -87.50 35
NA 15:00:00 TS 18.64 -87.90 35
NA 18:00:00 TS 18.70 -88.30 35
NA 21:00:00 TS 18.74 -88.65 35
NA 1867-09-27 00:00:00 TS 18.80 -89.00 35
NA 03:00:00 TS 18.89 -89.40 35
NA 06:00:00 TS 19.00 -89.80 35
NA 09:00:00 TS 19.10 -90.15 37
NA 12:00:00 TS 19.20 -90.50 40
NA 15:00:00 TS 19.31 -90.90 40
NA 18:00:00 TS 19.40 -91.30 40
NA 21:00:00 TS 19.45 -91.67 35
NA 1867-09-28 00:00:00 TS 19.50 -92.00 30
NA 03:00:00 TS 19.59 -92.27 30
NA 06:00:00 TS 19.70 -92.50 30
NA 09:00:00 TS 19.80 -92.75 30
NA 12:00:00 TS 19.90 -93.00 30
NA 15:00:00 TS 20.01 -93.25 30
NA 18:00:00 TS 20.10 -93.50 30
NA 21:00:00 TS 20.13 -93.76 27
NA 1867-09-29 00:00:00 TS 20.20 -94.00 25
NA 03:00:00 TS 20.38 -94.21 30
NA 06:00:00 TS 20.60 -94.40 35
NA 09:00:00 TS 20.76 -94.60 35
NA 12:00:00 TS 20.90 -94.80 35
NA 15:00:00 TS 21.05 -95.01 40
NA 18:00:00 TS 21.20 -95.20 45
NA 21:00:00 TS 21.33 -95.37 50
NA 1867-09-30 00:00:00 TS 21.50 -95.50 55
NA 03:00:00 TS 21.74 -95.61 57
NA 06:00:00 TS 22.00 -95.70 60
NA 09:00:00 TS 22.20 -95.80 67
NA 12:00:00 TS 22.40 -95.90 75
NA 15:00:00 TS 22.64 -96.01 80
NA 18:00:00 TS 22.90 -96.10 85
NA 21:00:00 TS 23.15 -96.15 90
NA 1867-10-01 00:00:00 TS 23.40 -96.20 95
NA 03:00:00 TS 23.66 -96.30 97
NA 06:00:00 NR 23.90 -96.40 100
NA 09:00:00 NR 24.10 -96.45 102
NA 12:00:00 NR 24.30 -96.50 105
NA 15:00:00 NR 24.54 -96.60 107
NA 18:00:00 NR 24.80 -96.70 110
NA 21:00:00 NR 25.05 -96.73 115
NA 1867-10-02 00:00:00 TS 24.70 -96.70 90 90 120
NA 03:00:00 TS 24.70 -96.84 90 110
NA 06:00:00 TS 24.84 -97.00 90 90 100
NA 09:00:00 TS 25.08 -97.12 90 90
NA 12:00:00 TS 25.43 -97.23 90 90 80
NA 15:00:00 TS 25.80 -97.30 90 72
NA 18:00:00 TS 26.17 -97.27 90 90 65
NA 21:00:00 TS 26.53 -97.12 90 70
NA 1867-10-03 00:00:00 TS 26.87 -96.87 90 90 75
NA 03:00:00 TS 27.14 -96.57 90 77
NA 06:00:00 TS 27.40 -96.23 90 90 80
NA 09:00:00 TS 27.68 -95.89 90 82
NA 12:00:00 TS 27.97 -95.50 90 90 85
NA 15:00:00 TS 28.31 -95.05 90 87
NA 18:00:00 TS 28.60 -94.60 90 90 90
NA 21:00:00 TS 28.77 -94.23 90 90
NA 1867-10-04 00:00:00 TS 28.87 -93.87 90 90 90
NA 03:00:00 TS 28.94 -93.45 90 90
NA 06:00:00 TS 28.97 -93.03 90 90 90
NA 09:00:00 TS 28.96 -92.65 90 90
NA 12:00:00 TS 28.97 -92.27 90 90 90
NA 15:00:00 TS 29.05 -91.87 90 90 90
NA 18:00:00 TS 29.07 -91.50 90 90 90
NA 21:00:00 TS 29.08 -91.05 90 90
NA 1867-10-05 00:00:00 TS 29.10 -90.50 90 90 90
NA 03:00:00 TS 29.11 -89.88 90 87
NA 06:00:00 TS 29.13 -89.20 90 90 85
NA 09:00:00 TS 29.16 -88.55 85 82
NA 12:00:00 TS 29.20 -87.87 80 80 80
NA 15:00:00 TS 29.24 -87.15 80 70
NA 18:00:00 TS 29.28 -86.52 80 80 60
NA 21:00:00 TS 29.34 -86.06 80
NA 1867-10-06 00:00:00 TS 29.40 -85.80 80 80
NA 03:00:00 TS 29.40 -85.28 80
NA 06:00:00 TS 29.40 -84.80 80 80
NA 09:00:00 TS 29.43 -84.43 75
NA 12:00:00 TS 29.50 -84.00 70 70
NA 15:00:00 TS 29.60 -83.40 70 70
NA 18:00:00 TS 29.60 -83.10 60 60
NA 21:00:00 TS 29.67 -82.81 55
NA 1867-10-07 00:00:00 TS 29.80 -82.50 50 50
NA 03:00:00 TS 29.93 -82.16 45
NA 06:00:00 TS 30.10 -81.80 40 40
NA 09:00:00 TS 30.28 -81.42 40
NA 12:00:00 TS 30.50 -81.00 40 40
NA 15:00:00 TS 30.73 -80.52 40
NA 18:00:00 TS 31.00 -80.00 40 40
NA 21:00:00 TS 31.28 -79.47 45
NA 1867-10-08 00:00:00 TS 31.60 -78.90 50 50
NA 03:00:00 TS 31.94 -78.25 50
NA 06:00:00 TS 32.30 -77.60 50 50
NA 09:00:00 TS 32.66 -77.03 50
NA 12:00:00 TS 33.00 -76.50 50 50
NA 15:00:00 TS 33.27 -75.98 50
NA 18:00:00 TS 33.50 -75.50 50 50
NA 21:00:00 TS 33.71 -75.02 50
NA 1867-10-09 00:00:00 TS 33.90 -74.60 50 50
NA 03:00:00 TS 34.06 -74.27 50
NA 06:00:00 TS 34.20 -74.00 50 50
NA 09:00:00 TS 34.36 -73.73 50
NA 12:00:00 TS 34.50 -73.50 50 50
NA 15:00:00 TS 34.61 -73.29 50
NA 18:00:00 TS 34.70 -73.10 50 50

Source Information

Agency Information
USA hurdat2-1851-2018-051019.txt:Line=1701:UNNAMED
TOKYO
CMA
HKO
NEWDELHI
REUNION
BOM
NADI
WELLINGTON
DS824
TD9636
TD9635
NEUMANN
MLC

All available IBTrACS Data

SEASON BASIN SUBBASIN ISO_TIME_________ NATURE LAT LON WMO WIND WMO AGENCY DIST2LAND LANDFALL IFLAG USA AGENCY USA ATCF_ID USA LAT USA LON USA RECORD USA STATUS USA WIND USA SSHS MLC LAT MLC LON MLC CLASS MLC WIND STORM SPEED STORM DIR
Year degrees north degrees east kts km km degrees north degrees east kts 1 degrees north degrees east kts kts degrees
1867 NA CS 1867-09-25 00:00:00 TS 18.20 -82.00 357 329 _____________O -1 18.20 -82.00 TD 30 10 276
1867 NA CS 03:00:00 TS 18.25 -82.50 338 312 _____________P -1 18.25 -82.50 TD 30 10 276
1867 NA CS 06:00:00 TS 18.30 -83.00 312 292 _____________O -1 18.30 -83.00 TD 30 10 276
1867 NA CS 09:00:00 TS 18.35 -83.50 292 289 _____________P -1 18.35 -83.50 TD 30 10 276
1867 NA CS 12:00:00 TS 18.40 -84.00 289 281 _____________O -1 18.40 -84.00 TD 30 10 276
1867 NA CS 15:00:00 TS 18.46 -84.50 291 274 _____________P -1 18.46 -84.50 TD 30 10 276
1867 NA CS 18:00:00 TS 18.50 -85.00 274 224 _____________O -1 18.50 -85.00 TD 30 10 273
1867 NA CS 21:00:00 TS 18.50 -85.52 224 174 _____________P -1 18.50 -85.52 TD 32 9 270
1867 NA CS 1867-09-26 00:00:00 TS 18.50 -86.00 174 134 _____________O -1 18.50 -86.00 TS 35 9 273
1867 NA CS 03:00:00 TS 18.55 -86.42 134 90 _____________P -1 18.55 -86.42 TS 35 8 278
1867 NA CS 06:00:00 TS 18.60 -86.80 90 62 _____________O -1 18.60 -86.80 TS 35 7 274
1867 NA CS 09:00:00 TS 18.60 -87.15 52 21 _____________P -1 18.60 -87.15 TS 35 7 270
1867 NA CS 12:00:00 TS 18.60 -87.50 21 0 _____________O -1 18.60 -87.50 TS 35 7 273
1867 NA NA 15:00:00 TS 18.64 -87.90 0 0 _____________P -1 18.64 -87.90 TS 35 8 278
1867 NA NA 18:00:00 TS 18.70 -88.30 0 0 _____________O -1 18.70 -88.30 TS 35 7 278
1867 NA NA 21:00:00 TS 18.74 -88.65 0 0 _____________P -1 18.74 -88.65 TS 35 7 279
1867 NA NA 1867-09-27 00:00:00 TS 18.80 -89.00 0 0 _____________O -1 18.80 -89.00 TS 35 7 282
1867 NA NA 03:00:00 TS 18.89 -89.40 0 0 _____________P -1 18.89 -89.40 TS 35 8 285
1867 NA NA 06:00:00 TS 19.00 -89.80 0 0 _____________O -1 19.00 -89.80 TS 35 7 286
1867 NA NA 09:00:00 TS 19.10 -90.15 0 0 _____________P -1 19.10 -90.15 TS 37 7 287
1867 NA NA 12:00:00 TS 19.20 -90.50 0 0 _____________O -1 19.20 -90.50 TS 40 7 286
1867 NA GM 15:00:00 TS 19.31 -90.90 10 10 _____________P -1 19.31 -90.90 TS 40 8 285
1867 NA GM 18:00:00 TS 19.40 -91.30 38 38 _____________O -1 19.40 -91.30 TS 40 7 281
1867 NA GM 21:00:00 TS 19.45 -91.67 59 59 _____________P -1 19.45 -91.67 TS 35 7 279
1867 NA GM 1867-09-28 00:00:00 TS 19.50 -92.00 85 85 _____________O -1 19.50 -92.00 TD 30 6 284
1867 NA GM 03:00:00 TS 19.59 -92.27 111 111 _____________P -1 19.59 -92.27 TD 30 5 293
1867 NA GM 06:00:00 TS 19.70 -92.50 123 123 _____________O -1 19.70 -92.50 TD 30 5 294
1867 NA GM 09:00:00 TS 19.80 -92.75 134 134 _____________P -1 19.80 -92.75 TD 30 5 293
1867 NA GM 12:00:00 TS 19.90 -93.00 148 148 _____________O -1 19.90 -93.00 TD 30 5 294
1867 NA GM 15:00:00 TS 20.01 -93.25 165 168 _____________P -1 20.01 -93.25 TD 30 5 293
1867 NA GM 18:00:00 TS 20.10 -93.50 187 187 _____________O -1 20.10 -93.50 TD 30 5 285
1867 NA GM 21:00:00 TS 20.13 -93.76 201 201 _____________P -1 20.13 -93.76 TD 27 5 282
1867 NA GM 1867-09-29 00:00:00 TS 20.20 -94.00 207 202 _____________O -1 20.20 -94.00 TD 25 5 301
1867 NA GM 03:00:00 TS 20.38 -94.21 217 212 _____________P -1 20.38 -94.21 TD 30 6 317
1867 NA GM 06:00:00 TS 20.60 -94.40 222 207 _____________O -1 20.60 -94.40 TS 35 5 315
1867 NA GM 09:00:00 TS 20.76 -94.60 212 200 _____________P -1 20.76 -94.60 TS 35 5 309
1867 NA GM 12:00:00 TS 20.90 -94.80 200 190 _____________O -1 20.90 -94.80 TS 35 5 307
1867 NA GM 15:00:00 TS 21.05 -95.01 198 190 _____________P -1 21.05 -95.01 TS 40 5 309
1867 NA GM 18:00:00 TS 21.20 -95.20 190 182 _____________O -1 21.20 -95.20 TS 45 4 311
1867 NA GM 21:00:00 TS 21.33 -95.37 182 182 _____________P -1 21.33 -95.37 TS 50 4 317
1867 NA GM 1867-09-30 00:00:00 TS 21.50 -95.50 186 175 _____________O -1 21.50 -95.50 TS 55 5 331
1867 NA GM 03:00:00 TS 21.74 -95.61 176 168 _____________P -1 21.74 -95.61 TS 57 5 340
1867 NA GM 06:00:00 TS 22.00 -95.70 171 164 _____________O -1 22.00 -95.70 TS 60 5 339
1867 NA GM 09:00:00 TS 22.20 -95.80 168 164 _____________P -1 22.20 -95.80 TS 67 4 335
1867 NA GM 12:00:00 TS 22.40 -95.90 169 167 _____________O -1 22.40 -95.90 HU 75 5 337
1867 NA GM 15:00:00 TS 22.64 -96.01 174 174 _____________P -1 22.64 -96.01 HU 80 5 340
1867 NA GM 18:00:00 TS 22.90 -96.10 174 173 _____________O -1 22.90 -96.10 HU 85 5 345
1867 NA GM 21:00:00 TS 23.15 -96.15 163 163 _____________P -1 23.15 -96.15 HU 90 5 350
1867 NA GM 1867-10-01 00:00:00 TS 23.40 -96.20 163 152 _____________O -1 23.40 -96.20 HU 95 5 345
1867 NA GM 03:00:00 TS 23.66 -96.30 152 142 _____________P -1 23.66 -96.30 HU 97 5 340
1867 NA GM 06:00:00 NR 23.90 -96.40 142 139 _____________O -1 23.90 -96.40 MH 100 5 343
1867 NA GM 09:00:00 NR 24.10 -96.45 129 123 _____________P -1 24.10 -96.45 MH 102 4 348
1867 NA GM 12:00:00 NR 24.30 -96.50 123 106 _____________O -1 24.30 -96.50 MH 105 5 343
1867 NA GM 15:00:00 NR 24.54 -96.60 106 83 _____________P -1 24.54 -96.60 MH 107 5 340
1867 NA GM 18:00:00 NR 24.80 -96.70 83 68 _____________O -1 24.80 -96.70 MH 110 5 347
1867 NA GM 21:00:00 NR 25.05 -96.73 73 73 _____________P -1 25.05 -96.73 MH 115 1 0
1867 NA GM 1867-10-02 00:00:00 TS 24.70 -96.70 90 hurdat_atl 87 78 O____________O hurdat_atl AL071867 23.50 -96.50 HU 90 2 25.30 -96.80 MH 120 4 197
1867 NA GM 03:00:00 TS 24.70 -96.84 78 55 P____________P AL071867 23.84 -96.66 HU 90 2 25.55 -97.03 MH 110 3 297
1867 NA GM 06:00:00 TS 24.84 -97.00 90 hurdat_atl 55 32 O____________O hurdat_atl AL071867 24.20 -96.80 HU 90 2 25.80 -97.30 MH 100 5 326
1867 NA GM 09:00:00 TS 25.08 -97.12 32 10 P____________P AL071867 24.58 -96.92 HU 90 2 26.06 -97.54 MH 90 6 340
1867 NA GM 12:00:00 TS 25.43 -97.23 90 hurdat_atl 10 0 O____________O hurdat_atl AL071867 25.00 -97.00 HU 90 2 26.30 -97.70 HU 80 7 348
1867 NA NA 15:00:00 TS 25.80 -97.30 0 0 P____________P AL071867 25.45 -97.09 HU 90 2 26.50 -97.72 HU 72 7 356
1867 NA GM 18:00:00 TS 26.17 -97.27 90 hurdat_atl 0 0 O____________O hurdat_atl AL071867 25.90 -97.10 HU 90 2 26.70 -97.60 HU 65 8 13
1867 NA GM 21:00:00 TS 26.53 -97.12 29 29 P____________P AL071867 26.32 -97.00 HU 90 2 26.95 -97.36 HU 70 8 27
1867 NA GM 1867-10-03 00:00:00 TS 26.87 -96.87 90 hurdat_atl 59 59 O____________O hurdat_atl AL071867 26.70 -96.80 HU 90 2 27.20 -97.00 HU 75 8 38
1867 NA GM 03:00:00 TS 27.14 -96.57 82 76 P____________P AL071867 27.01 -96.58 HU 90 2 27.40 -96.56 HU 77 8 47
1867 NA GM 06:00:00 TS 27.40 -96.23 90 hurdat_atl 104 92 O____________O hurdat_atl AL071867 27.30 -96.30 HU 90 2 27.60 -96.10 HU 80 8 49
1867 NA GM 09:00:00 TS 27.68 -95.89 92 87 P____________P AL071867 27.59 -95.99 HU 90 2 27.84 -95.68 HU 82 9 49
1867 NA GM 12:00:00 TS 27.97 -95.50 90 hurdat_atl 82 73 O____________O hurdat_atl AL071867 27.90 -95.60 HU 90 2 28.10 -95.30 HU 85 10 50
1867 NA GM 15:00:00 TS 28.31 -95.05 73 66 P____________P AL071867 28.27 -95.12 HU 90 2 28.39 -94.91 HU 87 10 51
1867 NA GM 18:00:00 TS 28.60 -94.60 90 hurdat_atl 73 73 O____________O hurdat_atl AL071867 28.60 -94.60 HU 90 2 28.60 -94.60 HU 90 9 57
1867 NA GM 21:00:00 TS 28.77 -94.23 87 87 P____________P AL071867 28.84 -94.11 HU 90 2 28.63 -94.47 HU 90 7 67
1867 NA GM 1867-10-04 00:00:00 TS 28.87 -93.87 90 hurdat_atl 89 89 O____________O hurdat_atl AL071867 29.00 -93.60 HU 90 2 28.60 -94.40 HU 90 7 76
1867 NA GM 03:00:00 TS 28.94 -93.45 93 80 P____________P AL071867 29.08 -93.05 HU 90 2 28.65 -94.26 HU 90 7 82
1867 NA GM 06:00:00 TS 28.97 -93.03 90 hurdat_atl 77 67 O____________O hurdat_atl AL071867 29.10 -92.50 HU 90 2 28.70 -94.10 HU 90 7 88
1867 NA GM 09:00:00 TS 28.96 -92.65 67 55 P____________P AL071867 29.09 -91.99 HU 90 2 28.70 -93.96 HU 90 7 90
1867 NA GM 12:00:00 TS 28.97 -92.27 90 hurdat_atl 55 55 O____________O hurdat_atl AL071867 29.10 -91.50 HU 90 2 28.70 -93.80 HU 90 7 83
1867 NA GM 15:00:00 TS 29.05 -91.87 90 hurdat_atl 62 38 O____________P hurdat_atl AL071867 29.20 -91.00 L HU 90 2 28.74 -93.60 HU 90 7 82
1867 NA GM 18:00:00 TS 29.07 -91.50 90 hurdat_atl 38 11 O____________O hurdat_atl AL071867 29.20 -90.60 HU 90 2 28.80 -93.30 HU 90 7 87
1867 NA GM 21:00:00 TS 29.08 -91.05 9 0 P____________P AL071867 29.20 -90.11 HU 90 2 28.85 -92.93 HU 90 9 88
1867 NA GM 1867-10-05 00:00:00 TS 29.10 -90.50 90 hurdat_atl 9 0 O____________O hurdat_atl AL071867 29.20 -89.60 HU 90 2 28.90 -92.30 HU 90 10 88
1867 NA GM 03:00:00 TS 29.11 -89.88 19 0 P____________P AL071867 29.19 -89.20 HU 90 2 28.96 -91.23 HU 87 11 88
1867 NA NA 06:00:00 TS 29.13 -89.20 90 hurdat_atl 0 0 O____________O hurdat_atl AL071867 29.20 -88.80 HU 90 2 29.00 -90.00 HU 85 12 88
1867 NA GM 09:00:00 TS 29.16 -88.55 40 40 P____________P AL071867 29.25 -88.32 HU 85 2 28.99 -89.02 HU 82 12 87
1867 NA GM 12:00:00 TS 29.20 -87.87 80 hurdat_atl 107 107 O____________O hurdat_atl AL071867 29.30 -87.80 HU 80 1 29.00 -88.00 HU 80 12 86
1867 NA GM 15:00:00 TS 29.24 -87.15 123 113 P____________P AL071867 29.30 -87.30 HU 80 1 29.08 -86.77 HU 70 12 86
1867 NA GM 18:00:00 TS 29.28 -86.52 80 hurdat_atl 115 81 O____________O hurdat_atl AL071867 29.30 -86.80 HU 80 1 29.20 -85.40 TS 60 10 84
1867 NA GM 21:00:00 TS 29.34 -86.06 81 51 P_____________ AL071867 29.35 -86.30 HU 80 1 TS 6 79
1867 NA GM 1867-10-06 00:00:00 TS 29.40 -85.80 80 hurdat_atl 51 33 O_____________ hurdat_atl AL071867 29.40 -85.80 HU 80 1 7 85
1867 NA GM 03:00:00 TS 29.40 -85.28 33 33 P_____________ AL071867 29.40 -85.28 HU 80 1 9 90
1867 NA GM 06:00:00 TS 29.40 -84.80 80 hurdat_atl 34 34 O_____________ hurdat_atl AL071867 29.40 -84.80 HU 80 1 7 88
1867 NA GM 09:00:00 TS 29.43 -84.43 53 44 P_____________ AL071867 29.43 -84.43 HU 75 1 7 82
1867 NA GM 12:00:00 TS 29.50 -84.00 70 hurdat_atl 51 0 O_____________ hurdat_atl AL071867 29.50 -84.00 HU 70 1 9 79
1867 NA GM 15:00:00 TS 29.60 -83.40 70 hurdat_atl 0 0 O_____________ hurdat_atl AL071867 29.60 -83.40 L HU 70 1 8 83
1867 NA NA 18:00:00 TS 29.60 -83.10 60 hurdat_atl 0 0 O_____________ hurdat_atl AL071867 29.60 -83.10 TS 60 0 5 82
1867 NA NA 21:00:00 TS 29.67 -82.81 0 0 P_____________ AL071867 29.67 -82.81 TS 55 0 6 69
1867 NA NA 1867-10-07 00:00:00 TS 29.80 -82.50 50 hurdat_atl 0 0 O_____________ hurdat_atl AL071867 29.80 -82.50 TS 50 0 6 65
1867 NA NA 03:00:00 TS 29.93 -82.16 0 0 P_____________ AL071867 29.93 -82.16 TS 45 0 7 64
1867 NA NA 06:00:00 TS 30.10 -81.80 40 hurdat_atl 0 0 O_____________ hurdat_atl AL071867 30.10 -81.80 TS 40 0 7 61
1867 NA NA 09:00:00 TS 30.28 -81.42 9 9 P_____________ AL071867 30.28 -81.42 TS 40 0 8 60
1867 NA NA 12:00:00 TS 30.50 -81.00 40 hurdat_atl 44 44 O_____________ hurdat_atl AL071867 30.50 -81.00 TS 40 0 9 60
1867 NA NA 15:00:00 TS 30.73 -80.52 85 85 P_____________ AL071867 30.73 -80.52 TS 40 0 10 60
1867 NA NA 18:00:00 TS 31.00 -80.00 40 hurdat_atl 127 127 O_____________ hurdat_atl AL071867 31.00 -80.00 TS 40 0 11 59
1867 NA NA 21:00:00 TS 31.28 -79.47 148 143 P_____________ AL071867 31.28 -79.47 TS 45 0 11 57
1867 NA NA 1867-10-08 00:00:00 TS 31.60 -78.90 50 hurdat_atl 152 150 O_____________ hurdat_atl AL071867 31.60 -78.90 TS 50 0 12 58
1867 NA NA 03:00:00 TS 31.94 -78.25 166 158 P_____________ AL071867 31.94 -78.25 TS 50 0 13 58
1867 NA NA 06:00:00 TS 32.30 -77.60 50 hurdat_atl 179 162 O_____________ hurdat_atl AL071867 32.30 -77.60 TS 50 0 13 55
1867 NA NA 09:00:00 TS 32.66 -77.03 162 159 P_____________ AL071867 32.66 -77.03 TS 50 0 12 53
1867 NA NA 12:00:00 TS 33.00 -76.50 50 hurdat_atl 171 162 O_____________ hurdat_atl AL071867 33.00 -76.50 TS 50 0 11 55
1867 NA NA 15:00:00 TS 33.27 -75.98 162 157 P_____________ AL071867 33.27 -75.98 TS 50 0 10 59
1867 NA NA 18:00:00 TS 33.50 -75.50 50 hurdat_atl 162 158 O_____________ hurdat_atl AL071867 33.50 -75.50 TS 50 0 9 61
1867 NA NA 21:00:00 TS 33.71 -75.02 177 177 P_____________ AL071867 33.71 -75.02 TS 50 0 8 62
1867 NA NA 1867-10-09 00:00:00 TS 33.90 -74.60 50 hurdat_atl 191 191 O_____________ hurdat_atl AL071867 33.90 -74.60 TS 50 0 7 61
1867 NA NA 03:00:00 TS 34.06 -74.27 203 203 P_____________ AL071867 34.06 -74.27 TS 50 0 6 59
1867 NA NA 06:00:00 TS 34.20 -74.00 50 hurdat_atl 219 218 O_____________ hurdat_atl AL071867 34.20 -74.00 TS 50 0 5 56
1867 NA NA 09:00:00 TS 34.36 -73.73 225 225 P_____________ AL071867 34.36 -73.73 TS 50 0 5 54
1867 NA NA 12:00:00 TS 34.50 -73.50 50 hurdat_atl 232 232 O_____________ hurdat_atl AL071867 34.50 -73.50 TS 50 0 4 55
1867 NA NA 15:00:00 TS 34.61 -73.29 240 240 P_____________ AL071867 34.61 -73.29 TS 50 0 4 59
1867 NA NA 18:00:00 TS 34.70 -73.10 50 hurdat_atl 249 O_____________ hurdat_atl AL071867 34.70 -73.10 TS 50 0 4 60